sensor_id;sensor_type;location;lat;lon;timestamp;P1;durP1;ratioP1;P2;durP2;ratioP2
67193;SDS011;54121;53.508;49.422;2022-07-29T00:01:01;5.55;;;4.70;;
67193;SDS011;54121;53.508;49.422;2022-07-29T00:03:27;9.50;;;5.32;;
67193;SDS011;54121;53.508;49.422;2022-07-29T00:05:54;8.32;;;5.07;;
67193;SDS011;54121;53.508;49.422;2022-07-29T00:08:20;16.52;;;5.30;;
67193;SDS011;54121;53.508;49.422;2022-07-29T00:10:47;16.25;;;5.57;;
67193;SDS011;54121;53.508;49.422;2022-07-29T00:13:13;10.23;;;5.22;;
67193;SDS011;54121;53.508;49.422;2022-07-29T00:15:40;13.32;;;6.32;;
67193;SDS011;54121;53.508;49.422;2022-07-29T00:18:06;14.13;;;6.18;;
67193;SDS011;54121;53.508;49.422;2022-07-29T00:20:33;10.35;;;5.13;;
67193;SDS011;54121;53.508;49.422;2022-07-29T00:22:59;17.60;;;5.10;;
67193;SDS011;54121;53.508;49.422;2022-07-29T00:25:26;12.73;;;5.45;;
67193;SDS011;54121;53.508;49.422;2022-07-29T00:27:53;11.00;;;5.22;;
67193;SDS011;54121;53.508;49.422;2022-07-29T00:30:19;9.48;;;4.82;;
67193;SDS011;54121;53.508;49.422;2022-07-29T00:32:46;8.40;;;5.22;;
67193;SDS011;54121;53.508;49.422;2022-07-29T00:35:12;10.30;;;5.03;;
67193;SDS011;54121;53.508;49.422;2022-07-29T00:37:57;11.68;;;5.32;;
67193;SDS011;54121;53.508;49.422;2022-07-29T00:40:24;7.43;;;4.93;;
67193;SDS011;54121;53.508;49.422;2022-07-29T00:42:51;14.52;;;5.32;;
67193;SDS011;54121;53.508;49.422;2022-07-29T00:45:18;7.95;;;5.10;;
67193;SDS011;54121;53.508;49.422;2022-07-29T00:47:45;13.65;;;5.68;;
67193;SDS011;54121;53.508;49.422;2022-07-29T00:50:12;16.73;;;5.90;;
67193;SDS011;54121;53.508;49.422;2022-07-29T00:52:39;22.00;;;5.38;;
67193;SDS011;54121;53.508;49.422;2022-07-29T00:55:08;8.68;;;5.30;;
67193;SDS011;54121;53.508;49.422;2022-07-29T00:57:36;28.80;;;5.75;;
67193;SDS011;54121;53.508;49.422;2022-07-29T01:00:04;12.98;;;5.35;;
67193;SDS011;54121;53.508;49.422;2022-07-29T01:02:32;17.98;;;6.00;;
67193;SDS011;54121;53.508;49.422;2022-07-29T01:04:59;8.60;;;4.78;;
67193;SDS011;54121;53.508;49.422;2022-07-29T01:07:27;14.52;;;5.75;;
67193;SDS011;54121;53.508;49.422;2022-07-29T01:09:55;12.77;;;5.50;;
67193;SDS011;54121;53.508;49.422;2022-07-29T01:12:26;39.17;;;7.53;;
67193;SDS011;54121;53.508;49.422;2022-07-29T01:14:59;21.95;;;5.50;;
67193;SDS011;54121;53.508;49.422;2022-07-29T01:25:30;17.77;;;6.72;;
67193;SDS011;54121;53.508;49.422;2022-07-29T01:31:04;17.05;;;6.35;;
67193;SDS011;54121;53.508;49.422;2022-07-29T01:33:33;13.75;;;5.88;;
67193;SDS011;54121;53.508;49.422;2022-07-29T01:36:22;25.35;;;7.05;;
67193;SDS011;54121;53.508;49.422;2022-07-29T01:39:36;26.85;;;7.00;;
67193;SDS011;54121;53.508;49.422;2022-07-29T01:45:10;41.03;;;8.85;;
67193;SDS011;54121;53.508;49.422;2022-07-29T01:47:52;22.95;;;6.70;;
67193;SDS011;54121;53.508;49.422;2022-07-29T01:50:33;13.95;;;5.68;;
67193;SDS011;54121;53.508;49.422;2022-07-29T01:53:07;11.93;;;5.72;;
67193;SDS011;54121;53.508;49.422;2022-07-29T01:55:39;11.90;;;4.93;;
67193;SDS011;54121;53.508;49.422;2022-07-29T01:58:09;11.02;;;5.55;;
67193;SDS011;54121;53.508;49.422;2022-07-29T02:00:37;8.93;;;5.05;;
67193;SDS011;54121;53.508;49.422;2022-07-29T02:03:07;19.88;;;5.47;;
67193;SDS011;54121;53.508;49.422;2022-07-29T02:05:38;10.68;;;5.45;;
67193;SDS011;54121;53.508;49.422;2022-07-29T02:08:06;14.00;;;5.15;;
67193;SDS011;54121;53.508;49.422;2022-07-29T02:10:35;11.45;;;5.03;;
67193;SDS011;54121;53.508;49.422;2022-07-29T02:13:04;17.55;;;4.68;;
67193;SDS011;54121;53.508;49.422;2022-07-29T02:15:33;9.95;;;4.95;;
67193;SDS011;54121;53.508;49.422;2022-07-29T02:18:02;8.80;;;4.47;;
67193;SDS011;54121;53.508;49.422;2022-07-29T02:20:34;5.40;;;4.00;;
67193;SDS011;54121;53.508;49.422;2022-07-29T02:23:02;6.10;;;3.97;;
67193;SDS011;54121;53.508;49.422;2022-07-29T02:25:29;9.15;;;4.35;;
67193;SDS011;54121;53.508;49.422;2022-07-29T02:27:57;7.30;;;3.90;;
67193;SDS011;54121;53.508;49.422;2022-07-29T02:30:26;13.05;;;4.50;;
67193;SDS011;54121;53.508;49.422;2022-07-29T02:32:54;9.32;;;4.30;;
67193;SDS011;54121;53.508;49.422;2022-07-29T02:35:21;10.75;;;4.40;;
67193;SDS011;54121;53.508;49.422;2022-07-29T02:37:49;13.27;;;4.70;;
67193;SDS011;54121;53.508;49.422;2022-07-29T02:40:37;13.27;;;5.47;;
67193;SDS011;54121;53.508;49.422;2022-07-29T02:43:05;18.40;;;5.55;;
67193;SDS011;54121;53.508;49.422;2022-07-29T02:45:33;14.73;;;4.90;;
67193;SDS011;54121;53.508;49.422;2022-07-29T02:48:00;7.20;;;4.63;;
67193;SDS011;54121;53.508;49.422;2022-07-29T02:50:35;11.77;;;4.15;;
67193;SDS011;54121;53.508;49.422;2022-07-29T02:53:13;14.90;;;4.75;;
67193;SDS011;54121;53.508;49.422;2022-07-29T02:55:44;10.27;;;4.72;;
67193;SDS011;54121;53.508;49.422;2022-07-29T03:00:58;10.27;;;4.45;;
67193;SDS011;54121;53.508;49.422;2022-07-29T03:03:28;9.02;;;4.10;;
67193;SDS011;54121;53.508;49.422;2022-07-29T03:06:00;6.20;;;4.15;;
67193;SDS011;54121;53.508;49.422;2022-07-29T03:08:28;8.07;;;4.00;;
67193;SDS011;54121;53.508;49.422;2022-07-29T03:10:57;8.83;;;4.00;;
67193;SDS011;54121;53.508;49.422;2022-07-29T03:13:24;14.68;;;5.03;;
67193;SDS011;54121;53.508;49.422;2022-07-29T03:15:51;9.93;;;3.60;;
67193;SDS011;54121;53.508;49.422;2022-07-29T03:18:19;6.95;;;3.95;;
67193;SDS011;54121;53.508;49.422;2022-07-29T03:20:45;9.45;;;3.58;;
67193;SDS011;54121;53.508;49.422;2022-07-29T03:23:12;10.32;;;4.80;;
67193;SDS011;54121;53.508;49.422;2022-07-29T03:25:45;12.35;;;4.18;;
67193;SDS011;54121;53.508;49.422;2022-07-29T03:28:12;6.60;;;3.40;;
67193;SDS011;54121;53.508;49.422;2022-07-29T03:30:38;12.32;;;3.65;;
67193;SDS011;54121;53.508;49.422;2022-07-29T03:33:05;9.20;;;4.35;;
67193;SDS011;54121;53.508;49.422;2022-07-29T03:35:31;16.92;;;4.70;;
67193;SDS011;54121;53.508;49.422;2022-07-29T03:37:58;17.40;;;4.30;;
67193;SDS011;54121;53.508;49.422;2022-07-29T03:43:21;15.10;;;5.10;;
67193;SDS011;54121;53.508;49.422;2022-07-29T03:45:51;11.50;;;4.40;;
67193;SDS011;54121;53.508;49.422;2022-07-29T03:48:20;13.55;;;4.10;;
67193;SDS011;54121;53.508;49.422;2022-07-29T03:50:49;13.90;;;4.70;;
67193;SDS011;54121;53.508;49.422;2022-07-29T03:53:17;8.98;;;3.90;;
67193;SDS011;54121;53.508;49.422;2022-07-29T03:55:44;21.00;;;5.68;;
67193;SDS011;54121;53.508;49.422;2022-07-29T03:58:14;9.25;;;4.20;;
67193;SDS011;54121;53.508;49.422;2022-07-29T04:00:41;11.60;;;4.00;;
67193;SDS011;54121;53.508;49.422;2022-07-29T04:03:09;18.23;;;5.07;;
67193;SDS011;54121;53.508;49.422;2022-07-29T04:05:36;9.48;;;3.70;;
67193;SDS011;54121;53.508;49.422;2022-07-29T04:08:03;12.35;;;4.40;;
67193;SDS011;54121;53.508;49.422;2022-07-29T04:10:29;9.82;;;3.90;;
67193;SDS011;54121;53.508;49.422;2022-07-29T04:12:56;11.75;;;4.15;;
67193;SDS011;54121;53.508;49.422;2022-07-29T04:15:23;17.10;;;3.92;;
67193;SDS011;54121;53.508;49.422;2022-07-29T04:17:49;17.33;;;4.75;;
67193;SDS011;54121;53.508;49.422;2022-07-29T04:20:16;7.18;;;3.78;;
67193;SDS011;54121;53.508;49.422;2022-07-29T04:22:42;12.27;;;4.20;;
67193;SDS011;54121;53.508;49.422;2022-07-29T04:25:09;11.98;;;4.10;;
67193;SDS011;54121;53.508;49.422;2022-07-29T04:27:38;10.35;;;3.90;;
67193;SDS011;54121;53.508;49.422;2022-07-29T04:30:24;13.82;;;4.07;;
67193;SDS011;54121;53.508;49.422;2022-07-29T04:32:54;10.10;;;3.60;;
67193;SDS011;54121;53.508;49.422;2022-07-29T04:35:21;11.98;;;4.15;;
67193;SDS011;54121;53.508;49.422;2022-07-29T04:37:47;8.00;;;4.35;;
67193;SDS011;54121;53.508;49.422;2022-07-29T04:40:14;9.02;;;3.42;;
67193;SDS011;54121;53.508;49.422;2022-07-29T04:42:40;6.93;;;3.70;;
67193;SDS011;54121;53.508;49.422;2022-07-29T04:45:07;8.48;;;3.50;;
67193;SDS011;54121;53.508;49.422;2022-07-29T04:47:33;10.52;;;3.50;;
67193;SDS011;54121;53.508;49.422;2022-07-29T04:50:00;8.90;;;3.92;;
67193;SDS011;54121;53.508;49.422;2022-07-29T04:52:26;8.27;;;3.63;;
67193;SDS011;54121;53.508;49.422;2022-07-29T04:54:53;13.43;;;4.82;;
67193;SDS011;54121;53.508;49.422;2022-07-29T04:57:19;6.13;;;3.67;;
67193;SDS011;54121;53.508;49.422;2022-07-29T04:59:46;12.93;;;4.00;;
67193;SDS011;54121;53.508;49.422;2022-07-29T05:02:12;8.68;;;3.63;;
67193;SDS011;54121;53.508;49.422;2022-07-29T05:04:39;7.43;;;3.45;;
67193;SDS011;54121;53.508;49.422;2022-07-29T05:07:05;9.32;;;3.33;;
67193;SDS011;54121;53.508;49.422;2022-07-29T05:09:31;7.03;;;3.40;;
67193;SDS011;54121;53.508;49.422;2022-07-29T05:11:58;8.52;;;3.50;;
67193;SDS011;54121;53.508;49.422;2022-07-29T05:14:25;9.18;;;3.53;;
67193;SDS011;54121;53.508;49.422;2022-07-29T05:16:51;10.95;;;4.00;;
67193;SDS011;54121;53.508;49.422;2022-07-29T05:19:18;8.27;;;3.72;;
67193;SDS011;54121;53.508;49.422;2022-07-29T05:21:44;8.75;;;3.85;;
67193;SDS011;54121;53.508;49.422;2022-07-29T05:24:11;7.28;;;3.03;;
67193;SDS011;54121;53.508;49.422;2022-07-29T05:26:37;9.80;;;3.33;;
67193;SDS011;54121;53.508;49.422;2022-07-29T05:29:04;8.73;;;3.70;;
67193;SDS011;54121;53.508;49.422;2022-07-29T05:31:30;10.73;;;3.47;;
67193;SDS011;54121;53.508;49.422;2022-07-29T05:33:57;8.10;;;3.10;;
67193;SDS011;54121;53.508;49.422;2022-07-29T05:36:23;6.90;;;3.50;;
67193;SDS011;54121;53.508;49.422;2022-07-29T05:38:50;7.53;;;3.58;;
67193;SDS011;54121;53.508;49.422;2022-07-29T05:41:18;8.43;;;3.50;;
67193;SDS011;54121;53.508;49.422;2022-07-29T05:43:44;9.20;;;3.77;;
67193;SDS011;54121;53.508;49.422;2022-07-29T05:46:11;7.85;;;2.95;;
67193;SDS011;54121;53.508;49.422;2022-07-29T05:48:39;10.70;;;3.22;;
67193;SDS011;54121;53.508;49.422;2022-07-29T05:51:05;4.95;;;3.13;;
67193;SDS011;54121;53.508;49.422;2022-07-29T05:53:32;5.32;;;2.63;;
67193;SDS011;54121;53.508;49.422;2022-07-29T05:56:02;5.60;;;3.20;;
67193;SDS011;54121;53.508;49.422;2022-07-29T05:58:30;4.47;;;3.13;;
67193;SDS011;54121;53.508;49.422;2022-07-29T06:00:56;5.72;;;3.15;;
67193;SDS011;54121;53.508;49.422;2022-07-29T06:03:26;11.35;;;3.33;;
67193;SDS011;54121;53.508;49.422;2022-07-29T06:05:52;7.25;;;3.35;;
67193;SDS011;54121;53.508;49.422;2022-07-29T06:08:19;5.05;;;2.90;;
67193;SDS011;54121;53.508;49.422;2022-07-29T06:10:46;5.50;;;3.08;;
67193;SDS011;54121;53.508;49.422;2022-07-29T06:13:12;7.40;;;2.80;;
67193;SDS011;54121;53.508;49.422;2022-07-29T06:15:41;5.47;;;2.95;;
67193;SDS011;54121;53.508;49.422;2022-07-29T06:18:09;4.80;;;2.90;;
67193;SDS011;54121;53.508;49.422;2022-07-29T06:20:36;4.70;;;3.20;;
67193;SDS011;54121;53.508;49.422;2022-07-29T06:23:02;5.68;;;2.90;;
67193;SDS011;54121;53.508;49.422;2022-07-29T06:25:30;9.82;;;5.10;;
67193;SDS011;54121;53.508;49.422;2022-07-29T06:28:00;8.27;;;2.92;;
67193;SDS011;54121;53.508;49.422;2022-07-29T06:30:26;6.22;;;2.85;;
67193;SDS011;54121;53.508;49.422;2022-07-29T06:32:54;7.57;;;2.90;;
67193;SDS011;54121;53.508;49.422;2022-07-29T06:35:20;7.57;;;2.95;;
67193;SDS011;54121;53.508;49.422;2022-07-29T06:37:47;6.30;;;3.10;;
67193;SDS011;54121;53.508;49.422;2022-07-29T06:40:14;3.45;;;2.78;;
67193;SDS011;54121;53.508;49.422;2022-07-29T06:43:00;4.80;;;2.72;;
67193;SDS011;54121;53.508;49.422;2022-07-29T06:45:26;3.10;;;2.67;;
67193;SDS011;54121;53.508;49.422;2022-07-29T06:47:53;7.50;;;3.55;;
67193;SDS011;54121;53.508;49.422;2022-07-29T06:50:19;7.53;;;3.15;;
67193;SDS011;54121;53.508;49.422;2022-07-29T06:52:47;4.82;;;3.17;;
67193;SDS011;54121;53.508;49.422;2022-07-29T06:55:14;9.43;;;3.00;;
67193;SDS011;54121;53.508;49.422;2022-07-29T06:57:40;6.30;;;2.92;;
67193;SDS011;54121;53.508;49.422;2022-07-29T07:00:07;6.28;;;2.97;;
67193;SDS011;54121;53.508;49.422;2022-07-29T07:02:34;7.90;;;3.17;;
67193;SDS011;54121;53.508;49.422;2022-07-29T07:05:00;8.60;;;3.50;;
67193;SDS011;54121;53.508;49.422;2022-07-29T07:07:28;4.03;;;2.92;;
67193;SDS011;54121;53.508;49.422;2022-07-29T07:09:54;7.03;;;2.97;;
67193;SDS011;54121;53.508;49.422;2022-07-29T07:12:21;8.32;;;3.65;;
67193;SDS011;54121;53.508;49.422;2022-07-29T07:14:47;8.10;;;3.10;;
67193;SDS011;54121;53.508;49.422;2022-07-29T07:17:14;8.35;;;3.28;;
67193;SDS011;54121;53.508;49.422;2022-07-29T07:19:40;9.80;;;3.45;;
67193;SDS011;54121;53.508;49.422;2022-07-29T07:22:07;5.15;;;2.97;;
67193;SDS011;54121;53.508;49.422;2022-07-29T07:24:33;12.65;;;4.13;;
67193;SDS011;54121;53.508;49.422;2022-07-29T07:27:00;9.48;;;3.33;;
67193;SDS011;54121;53.508;49.422;2022-07-29T07:29:27;7.32;;;3.20;;
67193;SDS011;54121;53.508;49.422;2022-07-29T07:31:53;4.88;;;3.03;;
67193;SDS011;54121;53.508;49.422;2022-07-29T07:34:20;5.10;;;3.08;;
67193;SDS011;54121;53.508;49.422;2022-07-29T07:36:47;5.40;;;2.97;;
67193;SDS011;54121;53.508;49.422;2022-07-29T07:39:13;7.85;;;3.20;;
67193;SDS011;54121;53.508;49.422;2022-07-29T07:41:40;4.50;;;3.35;;
67193;SDS011;54121;53.508;49.422;2022-07-29T07:44:06;5.82;;;3.22;;
67193;SDS011;54121;53.508;49.422;2022-07-29T07:46:33;5.88;;;3.00;;
67193;SDS011;54121;53.508;49.422;2022-07-29T07:48:59;7.97;;;3.35;;
67193;SDS011;54121;53.508;49.422;2022-07-29T07:51:26;4.70;;;3.22;;
67193;SDS011;54121;53.508;49.422;2022-07-29T07:53:52;6.85;;;3.92;;
67193;SDS011;54121;53.508;49.422;2022-07-29T07:56:19;10.02;;;3.85;;
67193;SDS011;54121;53.508;49.422;2022-07-29T07:58:45;9.38;;;3.72;;
67193;SDS011;54121;53.508;49.422;2022-07-29T08:01:12;11.65;;;4.40;;
67193;SDS011;54121;53.508;49.422;2022-07-29T08:03:38;7.95;;;3.90;;
67193;SDS011;54121;53.508;49.422;2022-07-29T08:06:05;11.20;;;3.63;;
67193;SDS011;54121;53.508;49.422;2022-07-29T08:08:32;5.10;;;3.25;;
67193;SDS011;54121;53.508;49.422;2022-07-29T08:10:58;5.97;;;3.92;;
67193;SDS011;54121;53.508;49.422;2022-07-29T08:13:27;10.23;;;3.90;;
67193;SDS011;54121;53.508;49.422;2022-07-29T08:15:56;5.30;;;3.67;;
67193;SDS011;54121;53.508;49.422;2022-07-29T08:18:27;6.57;;;3.85;;
67193;SDS011;54121;53.508;49.422;2022-07-29T08:20:55;4.72;;;3.55;;
67193;SDS011;54121;53.508;49.422;2022-07-29T08:23:22;8.60;;;3.55;;
67193;SDS011;54121;53.508;49.422;2022-07-29T08:25:49;7.50;;;3.33;;
67193;SDS011;54121;53.508;49.422;2022-07-29T08:28:16;10.15;;;4.00;;
67193;SDS011;54121;53.508;49.422;2022-07-29T08:30:43;9.32;;;4.40;;
67193;SDS011;54121;53.508;49.422;2022-07-29T08:33:09;7.25;;;4.00;;
67193;SDS011;54121;53.508;49.422;2022-07-29T08:35:36;10.07;;;4.05;;
67193;SDS011;54121;53.508;49.422;2022-07-29T08:38:04;8.50;;;4.05;;
67193;SDS011;54121;53.508;49.422;2022-07-29T08:40:30;7.80;;;3.97;;
67193;SDS011;54121;53.508;49.422;2022-07-29T08:42:57;6.70;;;4.28;;
67193;SDS011;54121;53.508;49.422;2022-07-29T08:45:25;9.57;;;4.10;;
67193;SDS011;54121;53.508;49.422;2022-07-29T08:47:54;9.70;;;4.45;;
67193;SDS011;54121;53.508;49.422;2022-07-29T08:50:21;9.98;;;4.60;;
67193;SDS011;54121;53.508;49.422;2022-07-29T08:52:48;7.65;;;4.40;;
67193;SDS011;54121;53.508;49.422;2022-07-29T08:55:16;6.90;;;4.37;;
67193;SDS011;54121;53.508;49.422;2022-07-29T08:57:43;6.83;;;4.60;;
67193;SDS011;54121;53.508;49.422;2022-07-29T09:00:11;4.50;;;3.83;;
67193;SDS011;54121;53.508;49.422;2022-07-29T09:02:41;12.27;;;3.70;;
67193;SDS011;54121;53.508;49.422;2022-07-29T09:05:13;11.38;;;4.70;;
67193;SDS011;54121;53.508;49.422;2022-07-29T09:07:40;10.13;;;4.38;;
67193;SDS011;54121;53.508;49.422;2022-07-29T09:10:08;7.53;;;3.72;;
67193;SDS011;54121;53.508;49.422;2022-07-29T09:12:35;4.07;;;3.67;;
67193;SDS011;54121;53.508;49.422;2022-07-29T09:15:02;6.53;;;4.47;;
67193;SDS011;54121;53.508;49.422;2022-07-29T09:17:45;8.55;;;4.53;;
67193;SDS011;54121;53.508;49.422;2022-07-29T09:20:16;8.68;;;4.20;;
67193;SDS011;54121;53.508;49.422;2022-07-29T09:22:44;6.45;;;3.40;;
67193;SDS011;54121;53.508;49.422;2022-07-29T09:28:17;5.40;;;3.78;;
67193;SDS011;54121;53.508;49.422;2022-07-29T09:30:51;6.20;;;4.00;;
67193;SDS011;54121;53.508;49.422;2022-07-29T09:33:18;7.63;;;4.50;;
67193;SDS011;54121;53.508;49.422;2022-07-29T09:35:58;9.95;;;4.15;;
67193;SDS011;54121;53.508;49.422;2022-07-29T09:38:26;5.22;;;3.55;;
67193;SDS011;54121;53.508;49.422;2022-07-29T09:40:56;9.80;;;4.82;;
67193;SDS011;54121;53.508;49.422;2022-07-29T09:43:23;8.45;;;4.13;;
67193;SDS011;54121;53.508;49.422;2022-07-29T09:45:50;5.05;;;4.07;;
67193;SDS011;54121;53.508;49.422;2022-07-29T09:48:18;6.93;;;4.10;;
67193;SDS011;54121;53.508;49.422;2022-07-29T09:50:46;5.85;;;4.40;;
67193;SDS011;54121;53.508;49.422;2022-07-29T09:53:29;5.88;;;3.90;;
67193;SDS011;54121;53.508;49.422;2022-07-29T09:55:58;7.15;;;3.88;;
67193;SDS011;54121;53.508;49.422;2022-07-29T09:58:25;5.25;;;4.18;;
67193;SDS011;54121;53.508;49.422;2022-07-29T10:00:53;6.60;;;4.38;;
67193;SDS011;54121;53.508;49.422;2022-07-29T10:03:21;8.65;;;3.90;;
67193;SDS011;54121;53.508;49.422;2022-07-29T10:06:07;7.55;;;4.15;;
67193;SDS011;54121;53.508;49.422;2022-07-29T10:08:35;8.77;;;4.53;;
67193;SDS011;54121;53.508;49.422;2022-07-29T10:11:13;6.97;;;4.60;;
67193;SDS011;54121;53.508;49.422;2022-07-29T10:13:44;6.13;;;4.28;;
67193;SDS011;54121;53.508;49.422;2022-07-29T10:16:12;8.23;;;4.65;;
67193;SDS011;54121;53.508;49.422;2022-07-29T10:18:42;5.78;;;4.25;;
67193;SDS011;54121;53.508;49.422;2022-07-29T10:21:09;9.23;;;4.32;;
67193;SDS011;54121;53.508;49.422;2022-07-29T10:23:36;6.47;;;4.10;;
67193;SDS011;54121;53.508;49.422;2022-07-29T10:26:04;8.07;;;4.75;;
67193;SDS011;54121;53.508;49.422;2022-07-29T10:28:31;5.72;;;4.07;;
67193;SDS011;54121;53.508;49.422;2022-07-29T10:30:59;12.98;;;4.55;;
67193;SDS011;54121;53.508;49.422;2022-07-29T10:36:20;7.25;;;4.15;;
67193;SDS011;54121;53.508;49.422;2022-07-29T10:44:40;9.55;;;5.05;;
67193;SDS011;54121;53.508;49.422;2022-07-29T10:47:07;11.27;;;4.68;;
67193;SDS011;54121;53.508;49.422;2022-07-29T10:49:34;5.80;;;4.22;;
67193;SDS011;54121;53.508;49.422;2022-07-29T11:00:48;6.97;;;5.68;;
67193;SDS011;54121;53.508;49.422;2022-07-29T11:02:56;6.30;;;4.95;;
67193;SDS011;54121;53.508;49.422;2022-07-29T11:05:23;7.27;;;5.03;;
67193;SDS011;54121;53.508;49.422;2022-07-29T11:10:45;10.15;;;4.35;;
67193;SDS011;54121;53.508;49.422;2022-07-29T11:13:44;6.10;;;4.60;;
67193;SDS011;54121;53.508;49.422;2022-07-29T11:16:16;7.82;;;4.57;;
67193;SDS011;54121;53.508;49.422;2022-07-29T11:21:40;6.70;;;4.68;;
67193;SDS011;54121;53.508;49.422;2022-07-29T11:24:14;10.32;;;5.72;;
67193;SDS011;54121;53.508;49.422;2022-07-29T11:26:43;6.90;;;4.88;;
67193;SDS011;54121;53.508;49.422;2022-07-29T11:29:20;8.75;;;5.35;;
67193;SDS011;54121;53.508;49.422;2022-07-29T11:31:51;13.23;;;5.20;;
67193;SDS011;54121;53.508;49.422;2022-07-29T11:39:36;7.32;;;4.82;;
67193;SDS011;54121;53.508;49.422;2022-07-29T11:44:54;6.90;;;5.18;;
67193;SDS011;54121;53.508;49.422;2022-07-29T11:47:23;6.70;;;5.35;;
67193;SDS011;54121;53.508;49.422;2022-07-29T11:49:51;6.85;;;5.32;;
67193;SDS011;54121;53.508;49.422;2022-07-29T11:52:19;6.75;;;4.88;;
67193;SDS011;54121;53.508;49.422;2022-07-29T11:54:47;6.45;;;4.95;;
67193;SDS011;54121;53.508;49.422;2022-07-29T11:57:17;5.43;;;4.50;;
67193;SDS011;54121;53.508;49.422;2022-07-29T11:59:46;9.40;;;5.35;;
67193;SDS011;54121;53.508;49.422;2022-07-29T12:02:14;13.27;;;5.78;;
67193;SDS011;54121;53.508;49.422;2022-07-29T12:07:14;7.22;;;5.80;;
67193;SDS011;54121;53.508;49.422;2022-07-29T12:09:49;9.10;;;5.22;;
67193;SDS011;54121;53.508;49.422;2022-07-29T12:12:17;5.75;;;5.15;;
67193;SDS011;54121;53.508;49.422;2022-07-29T12:14:44;8.10;;;5.50;;
67193;SDS011;54121;53.508;49.422;2022-07-29T12:17:31;7.45;;;5.53;;
67193;SDS011;54121;53.508;49.422;2022-07-29T12:20:00;12.48;;;5.60;;
67193;SDS011;54121;53.508;49.422;2022-07-29T12:22:29;7.85;;;5.97;;
67193;SDS011;54121;53.508;49.422;2022-07-29T12:25:01;8.10;;;5.07;;
67193;SDS011;54121;53.508;49.422;2022-07-29T12:27:39;7.45;;;5.60;;
67193;SDS011;54121;53.508;49.422;2022-07-29T12:30:09;8.20;;;5.53;;
67193;SDS011;54121;53.508;49.422;2022-07-29T12:32:39;8.95;;;5.35;;
67193;SDS011;54121;53.508;49.422;2022-07-29T12:35:09;8.00;;;5.40;;
67193;SDS011;54121;53.508;49.422;2022-07-29T12:37:38;6.30;;;5.22;;
67193;SDS011;54121;53.508;49.422;2022-07-29T12:40:07;7.47;;;4.90;;
67193;SDS011;54121;53.508;49.422;2022-07-29T12:42:36;7.00;;;5.60;;
67193;SDS011;54121;53.508;49.422;2022-07-29T12:45:03;9.55;;;5.80;;
67193;SDS011;54121;53.508;49.422;2022-07-29T12:47:30;9.63;;;5.43;;
67193;SDS011;54121;53.508;49.422;2022-07-29T12:52:53;6.32;;;5.68;;
67193;SDS011;54121;53.508;49.422;2022-07-29T12:58:25;8.07;;;6.05;;
67193;SDS011;54121;53.508;49.422;2022-07-29T13:01:04;8.52;;;5.85;;
67193;SDS011;54121;53.508;49.422;2022-07-29T13:03:44;9.48;;;6.05;;
67193;SDS011;54121;53.508;49.422;2022-07-29T13:11:40;7.88;;;5.70;;
67193;SDS011;54121;53.508;49.422;2022-07-29T13:14:10;10.35;;;6.53;;
67193;SDS011;54121;53.508;49.422;2022-07-29T13:17:00;6.88;;;5.60;;
67193;SDS011;54121;53.508;49.422;2022-07-29T13:22:11;7.18;;;4.75;;
67193;SDS011;54121;53.508;49.422;2022-07-29T13:24:46;6.57;;;5.53;;
67193;SDS011;54121;53.508;49.422;2022-07-29T13:27:16;8.02;;;5.28;;
67193;SDS011;54121;53.508;49.422;2022-07-29T13:29:48;5.97;;;4.93;;
67193;SDS011;54121;53.508;49.422;2022-07-29T13:32:18;7.57;;;5.07;;
67193;SDS011;54121;53.508;49.422;2022-07-29T13:34:46;9.02;;;6.05;;
67193;SDS011;54121;53.508;49.422;2022-07-29T13:37:13;8.18;;;5.32;;
67193;SDS011;54121;53.508;49.422;2022-07-29T13:39:40;8.77;;;5.22;;
67193;SDS011;54121;53.508;49.422;2022-07-29T13:42:06;8.48;;;5.85;;
67193;SDS011;54121;53.508;49.422;2022-07-29T13:44:34;9.10;;;5.30;;
67193;SDS011;54121;53.508;49.422;2022-07-29T13:47:01;7.20;;;4.90;;
67193;SDS011;54121;53.508;49.422;2022-07-29T13:49:28;6.28;;;5.10;;
67193;SDS011;54121;53.508;49.422;2022-07-29T13:51:54;6.30;;;4.95;;
67193;SDS011;54121;53.508;49.422;2022-07-29T13:54:21;9.35;;;5.07;;
67193;SDS011;54121;53.508;49.422;2022-07-29T13:56:47;7.30;;;4.93;;
67193;SDS011;54121;53.508;49.422;2022-07-29T13:59:14;16.35;;;5.55;;
67193;SDS011;54121;53.508;49.422;2022-07-29T14:01:40;7.75;;;5.43;;
67193;SDS011;54121;53.508;49.422;2022-07-29T14:04:08;7.95;;;5.18;;
67193;SDS011;54121;53.508;49.422;2022-07-29T14:06:35;7.55;;;5.25;;
67193;SDS011;54121;53.508;49.422;2022-07-29T14:09:02;12.45;;;4.60;;
67193;SDS011;54121;53.508;49.422;2022-07-29T14:11:34;9.07;;;5.10;;
67193;SDS011;54121;53.508;49.422;2022-07-29T14:14:01;6.33;;;4.90;;
67193;SDS011;54121;53.508;49.422;2022-07-29T14:16:27;6.53;;;5.05;;
67193;SDS011;54121;53.508;49.422;2022-07-29T14:18:54;8.85;;;5.13;;
67193;SDS011;54121;53.508;49.422;2022-07-29T14:21:20;6.97;;;4.90;;
67193;SDS011;54121;53.508;49.422;2022-07-29T14:23:47;9.10;;;4.55;;
67193;SDS011;54121;53.508;49.422;2022-07-29T14:26:13;16.85;;;4.72;;
67193;SDS011;54121;53.508;49.422;2022-07-29T14:28:40;6.50;;;4.68;;
67193;SDS011;54121;53.508;49.422;2022-07-29T14:31:07;6.00;;;4.35;;
67193;SDS011;54121;53.508;49.422;2022-07-29T14:33:33;4.70;;;4.05;;
67193;SDS011;54121;53.508;49.422;2022-07-29T14:36:00;6.38;;;4.18;;
67193;SDS011;54121;53.508;49.422;2022-07-29T14:38:26;5.20;;;3.90;;
67193;SDS011;54121;53.508;49.422;2022-07-29T14:40:53;6.38;;;4.15;;
67193;SDS011;54121;53.508;49.422;2022-07-29T14:43:20;5.75;;;4.68;;
67193;SDS011;54121;53.508;49.422;2022-07-29T14:45:46;6.03;;;4.50;;
67193;SDS011;54121;53.508;49.422;2022-07-29T14:48:13;5.90;;;4.32;;
67193;SDS011;54121;53.508;49.422;2022-07-29T14:50:39;8.00;;;4.57;;
67193;SDS011;54121;53.508;49.422;2022-07-29T14:53:06;10.00;;;5.18;;
67193;SDS011;54121;53.508;49.422;2022-07-29T14:55:32;8.68;;;4.88;;
67193;SDS011;54121;53.508;49.422;2022-07-29T14:57:59;6.00;;;4.95;;
67193;SDS011;54121;53.508;49.422;2022-07-29T15:00:25;13.68;;;5.40;;
67193;SDS011;54121;53.508;49.422;2022-07-29T15:02:52;9.43;;;6.35;;
67193;SDS011;54121;53.508;49.422;2022-07-29T15:05:19;11.95;;;6.35;;
67193;SDS011;54121;53.508;49.422;2022-07-29T15:07:45;19.58;;;6.15;;
67193;SDS011;54121;53.508;49.422;2022-07-29T15:10:11;12.20;;;5.75;;
67193;SDS011;54121;53.508;49.422;2022-07-29T15:12:38;27.08;;;17.38;;
67193;SDS011;54121;53.508;49.422;2022-07-29T15:15:04;12.10;;;7.35;;
67193;SDS011;54121;53.508;49.422;2022-07-29T15:17:32;21.05;;;12.18;;
67193;SDS011;54121;53.508;49.422;2022-07-29T15:19:59;15.25;;;9.07;;
67193;SDS011;54121;53.508;49.422;2022-07-29T15:22:25;14.10;;;6.35;;
67193;SDS011;54121;53.508;49.422;2022-07-29T15:24:52;11.20;;;6.00;;
67193;SDS011;54121;53.508;49.422;2022-07-29T15:27:18;13.70;;;5.93;;
67193;SDS011;54121;53.508;49.422;2022-07-29T15:29:45;19.85;;;6.30;;
67193;SDS011;54121;53.508;49.422;2022-07-29T15:32:11;12.25;;;5.57;;
67193;SDS011;54121;53.508;49.422;2022-07-29T15:34:37;18.55;;;5.78;;
67193;SDS011;54121;53.508;49.422;2022-07-29T15:37:04;8.50;;;5.30;;
67193;SDS011;54121;53.508;49.422;2022-07-29T15:39:31;9.63;;;5.10;;
67193;SDS011;54121;53.508;49.422;2022-07-29T15:41:58;17.75;;;7.28;;
67193;SDS011;54121;53.508;49.422;2022-07-29T15:44:25;8.27;;;5.25;;
67193;SDS011;54121;53.508;49.422;2022-07-29T15:46:52;13.13;;;5.55;;
67193;SDS011;54121;53.508;49.422;2022-07-29T15:49:38;10.68;;;5.38;;